Airfield :
LOGIN :

Register | Disclaimer

   EN    FR    IT 

 










Legend :    VFR   Marginal VFR   IFR   Intensive IFR   Very Intensive IFR
Visi :
Ceiling :
>= 8 km
>= 3000ft
5 to 8 km
1000 to 3000 ft
1500m to 5 km
500 to 1000 ft
800 to 1500m
200 to 500 ft
< 800m
< 200 ft
Symbols :   Thunderstorms  Fog  Heavy snow  Heavy precipitations  Wind > 20 kt
SIGMETs :     Misc.  Thunderstorms  Icing  Turbulence  Mountain Waves  Volcanic Ashes






- Airport Elevation : 412 ft
- IATA code : ORE


LFOJ - Orleans

CURRENT METAR :
  • 232000Z AUTO 13005KT CAVOK 13/13 Q1006

EXPIRED METARs :
  • 231930Z AUTO 07009KT 7000 NSC 13/13 Q1005
  • 231900Z AUTO 08008KT CAVOK 14/13 Q1006
  • 231830Z AUTO 05009KT 8000 NSC 14/13 Q1006
  • 231800Z AUTO 06005KT 9000 NSC 14/13 Q1007
  • 231730Z AUTO 06010KT CAVOK 14/13 Q1006

TAF TAF LFOJ
Valid from the 23 at 15:00 until the 24 at 15:00 UTC


231400Z 2315/2415 08009KT CAVOK
TEMPO 2315/2316 4900 -RA
PROB30
TEMPO 2406/2408 BKN014
TEMPO 2410/2415 19020G30KT 4900 -RA



MET'MAP, your aeronautical weather chart ! - Copyright ORBIFLY December 2007 - Disclaimer

ORBIFLY MET'MAP TEAM :

Programming & Development : Alexandra Zaïnal
Concept & Development : Baudouin d'Aumeries
Co-Development & Prog : Marc-Olivier Méhu
Technical & hardware support : Manuel Goepfert

Contact : metmap@orbifly.com




SOURCES & CREDITS :

   NOAA